Time,TemperatureF,DewpointF,PressureIn,WindDirection,WindDirectionDegrees,WindSpeedMPH,WindSpeedGustMPH,Humidity,HourlyPrecipIn,Conditions,Clouds,dailyrainin,SolarRadiationWatts/m^2,SoftwareType,DateUTC
2013-01-29 00:01:00,38.0,32.0,29.85,West,267,32.0,41.0,79,-99.99,,,-99.99,0.000000,,2013-01-29 07:01:00,
2013-01-29 00:11:00,37.0,31.0,29.84,West,267,35.0,42.0,78,-99.99,,,-99.99,0.000000,,2013-01-29 07:11:00,
2013-01-29 00:21:00,37.0,31.0,29.84,West,267,35.0,42.0,78,-99.99,,,-99.99,0.000000,,2013-01-29 07:21:00,
2013-01-29 00:31:00,37.0,31.0,29.84,West,268,35.0,43.0,78,-99.99,,,-99.99,0.000000,,2013-01-29 07:31:00,
2013-01-29 00:42:00,37.0,31.0,29.84,West,266,35.0,44.0,78,-99.99,,,-99.99,0.000000,,2013-01-29 07:42:00,
2013-01-29 00:52:00,37.0,31.0,29.84,West,266,35.0,44.0,78,-99.99,,,-99.99,0.000000,,2013-01-29 07:52:00,
2013-01-29 01:02:00,36.0,30.0,29.84,West,265,33.0,41.0,78,-99.99,,,-99.99,0.000000,,2013-01-29 08:02:00,
2013-01-29 01:11:00,36.0,30.0,29.83,West,262,35.0,44.0,77,-99.99,,,-99.99,0.000000,,2013-01-29 08:11:00,
2013-01-29 01:21:00,36.0,30.0,29.83,West,262,35.0,44.0,77,-99.99,,,-99.99,0.000000,,2013-01-29 08:21:00,
2013-01-29 01:31:00,35.0,30.0,29.83,West,261,38.0,47.0,81,-99.99,,,-99.99,0.000000,,2013-01-29 08:31:00,
2013-01-29 01:42:00,35.0,30.0,29.83,West,260,36.0,46.0,82,-99.99,,,-99.99,0.000000,,2013-01-29 08:42:00,
2013-01-29 01:52:00,35.0,30.0,29.83,West,260,36.0,46.0,82,-99.99,,,-99.99,0.000000,,2013-01-29 08:52:00,
2013-01-29 02:01:00,35.0,29.0,29.82,West,259,38.0,46.0,77,-99.99,,,-99.99,0.000000,,2013-01-29 09:01:00,
2013-01-29 02:11:00,35.0,29.0,29.82,West,259,38.0,46.0,77,-99.99,,,-99.99,0.000000,,2013-01-29 09:11:00,
2013-01-29 02:21:00,35.0,29.0,29.82,West,259,38.0,46.0,77,-99.99,,,-99.99,0.000000,,2013-01-29 09:21:00,
2013-01-29 02:31:00,34.0,27.0,29.82,West,265,38.0,52.0,74,-99.99,,,-99.99,0.000000,,2013-01-29 09:31:00,
2013-01-29 02:42:00,34.0,25.0,29.82,West,266,33.0,41.0,69,-99.99,,,-99.99,0.000000,,2013-01-29 09:42:00,
2013-01-29 02:52:00,34.0,25.0,29.82,West,266,33.0,41.0,69,-99.99,,,-99.99,0.000000,,2013-01-29 09:52:00,
2013-01-29 03:01:00,34.0,24.0,29.82,West,270,32.0,39.0,65,-99.99,,,-99.99,0.000000,,2013-01-29 10:01:00,
2013-01-29 03:11:00,34.0,23.0,29.82,West,272,30.0,40.0,64,-99.99,,,-99.99,0.000000,,2013-01-29 10:11:00,
2013-01-29 03:21:00,34.0,23.0,29.82,West,272,30.0,40.0,64,-99.99,,,-99.99,0.000000,,2013-01-29 10:21:00,
2013-01-29 03:32:00,34.0,23.0,29.82,West,272,32.0,44.0,63,-99.99,,,-99.99,0.000000,,2013-01-29 10:32:00,
2013-01-29 03:41:00,34.0,23.0,29.81,West,265,37.0,47.0,63,-99.99,,,-99.99,0.000000,,2013-01-29 10:41:00,
2013-01-29 03:52:00,34.0,23.0,29.81,West,265,37.0,47.0,63,-99.99,,,-99.99,0.000000,,2013-01-29 10:52:00,
2013-01-29 04:01:00,33.0,23.0,29.81,West,267,30.0,38.0,66,-99.99,,,-99.99,0.000000,,2013-01-29 11:01:00,
2013-01-29 04:11:00,33.0,23.0,29.81,West,268,28.0,36.0,67,-99.99,,,-99.99,0.000000,,2013-01-29 11:11:00,
2013-01-29 04:22:00,33.0,23.0,29.81,West,268,28.0,36.0,67,-99.99,,,-99.99,0.000000,,2013-01-29 11:22:00,
2013-01-29 04:32:00,32.0,23.0,29.80,West,267,32.0,37.0,68,-99.99,,,-99.99,0.000000,,2013-01-29 11:32:00,
2013-01-29 04:42:00,32.0,23.0,29.79,West,266,30.0,36.0,69,-99.99,,,-99.99,0.000000,,2013-01-29 11:42:00,
2013-01-29 04:53:00,32.0,23.0,29.78,West,265,32.0,39.0,70,-99.99,,,-99.99,0.000000,,2013-01-29 11:53:00,
2013-01-29 05:02:00,32.0,23.0,29.78,West,265,32.0,39.0,70,-99.99,,,-99.99,0.000000,,2013-01-29 12:02:00,
2013-01-29 05:12:00,31.0,23.0,29.78,West,264,31.0,37.0,70,-99.99,,,-99.99,0.000000,,2013-01-29 12:12:00,
2013-01-29 05:22:00,31.0,23.0,29.78,West,264,31.0,37.0,70,-99.99,,,-99.99,0.000000,,2013-01-29 12:22:00,
2013-01-29 05:32:00,31.0,23.0,29.78,West,267,32.0,39.0,70,-99.99,,,-99.99,0.000000,,2013-01-29 12:32:00,
2013-01-29 05:43:00,31.0,22.0,29.77,West,266,33.0,39.0,67,-99.99,,,-99.99,0.000000,,2013-01-29 12:43:00,
2013-01-29 05:53:00,31.0,22.0,29.77,West,266,33.0,39.0,67,-99.99,,,-99.99,0.000000,,2013-01-29 12:53:00,
2013-01-29 06:02:00,31.0,22.0,29.77,West,263,31.0,36.0,69,-99.99,,,-99.99,0.000000,,2013-01-29 13:02:00,
2013-01-29 06:12:00,30.0,21.0,29.77,WSW,256,32.0,39.0,68,-99.99,,,-99.99,0.000000,,2013-01-29 13:12:00,
2013-01-29 06:22:00,30.0,21.0,29.77,WSW,256,32.0,39.0,68,-99.99,,,-99.99,0.000000,,2013-01-29 13:22:00,
2013-01-29 06:32:00,30.0,21.0,29.77,WSW,252,33.0,41.0,69,-99.99,,,-99.99,0.000000,,2013-01-29 13:32:00,
2013-01-29 06:42:00,28.0,21.0,29.77,WSW,248,31.0,40.0,74,-99.99,,,-99.99,0.000000,,2013-01-29 13:42:00,
2013-01-29 06:52:00,28.0,21.0,29.77,WSW,248,31.0,40.0,74,-99.99,,,-99.99,0.000000,,2013-01-29 13:52:00,
2013-01-29 07:02:00,27.0,23.0,29.77,WSW,239,33.0,43.0,85,-99.99,,,-99.99,0.000000,,2013-01-29 14:02:00,
2013-01-29 07:12:00,26.0,23.0,29.77,SW,235,33.0,40.0,85,-99.99,,,-99.99,0.000000,,2013-01-29 14:12:00,
2013-01-29 07:22:00,26.0,23.0,29.77,SW,235,33.0,40.0,85,-99.99,,,-99.99,0.000000,,2013-01-29 14:22:00,
2013-01-29 07:33:00,26.0,23.0,29.77,WSW,241,34.0,44.0,85,-99.99,,,-99.99,1.390000,,2013-01-29 14:33:00,
2013-01-29 07:43:00,26.0,23.0,29.77,WSW,241,34.0,44.0,85,-99.99,,,-99.99,1.390000,,2013-01-29 14:43:00,
2013-01-29 07:53:00,26.0,23.0,29.77,WSW,241,34.0,44.0,85,-99.99,,,-99.99,1.390000,,2013-01-29 14:53:00,
2013-01-29 08:02:00,26.0,23.0,29.78,WSW,244,35.0,41.0,85,-99.99,,,-99.99,9.070000,,2013-01-29 15:02:00,
2013-01-29 08:12:00,27.0,23.0,29.80,WSW,249,33.0,41.0,83,-99.99,,,-99.99,199.440002,,2013-01-29 15:12:00,
2013-01-29 08:22:00,27.0,23.0,29.80,WSW,249,33.0,41.0,83,-99.99,,,-99.99,199.440002,,2013-01-29 15:22:00,
2013-01-29 08:33:00,27.0,23.0,29.80,WSW,249,33.0,41.0,83,-99.99,,,-99.99,199.440002,,2013-01-29 15:33:00,
2013-01-29 08:43:00,27.0,23.0,29.80,WSW,249,33.0,41.0,83,-99.99,,,-99.99,199.440002,,2013-01-29 15:43:00,
2013-01-29 09:02:00,28.0,22.0,29.80,West,262,31.0,37.0,80,-99.99,,,-99.99,155.509995,,2013-01-29 16:02:00,
2013-01-29 09:12:00,27.0,24.0,29.77,WSW,242,40.0,46.0,85,-99.99,,,-99.99,340.299988,,2013-01-29 16:12:00,
2013-01-29 09:22:00,27.0,24.0,29.77,WSW,242,40.0,46.0,85,-99.99,,,-99.99,340.299988,,2013-01-29 16:22:00,
2013-01-29 09:32:00,28.0,24.0,29.77,WSW,240,39.0,46.0,87,-99.99,,,-99.99,380.739990,,2013-01-29 16:32:00,
2013-01-29 09:42:00,28.0,24.0,29.77,WSW,240,39.0,46.0,87,-99.99,,,-99.99,380.739990,,2013-01-29 16:42:00,
2013-01-29 09:53:00,28.0,24.0,29.77,WSW,240,39.0,46.0,87,-99.99,,,-99.99,380.739990,,2013-01-29 16:53:00,
2013-01-29 10:03:00,28.0,24.0,29.77,WSW,246,40.0,48.0,84,-99.99,,,-99.99,169.449997,,2013-01-29 17:03:00,
2013-01-29 10:12:00,28.0,22.0,29.76,WSW,250,43.0,52.0,78,-99.99,,,-99.99,290.790009,,2013-01-29 17:12:00,
2013-01-29 10:22:00,28.0,22.0,29.76,WSW,250,43.0,52.0,78,-99.99,,,-99.99,290.790009,,2013-01-29 17:22:00,
2013-01-29 10:30:00,30.0,17.0,29.76,West,262,48.0,60.0,59,-99.99,,,-99.99,200.130005,,2013-01-29 17:30:00,
2013-01-29 10:32:00,29.0,21.0,29.76,West,259,43.0,54.0,70,-99.99,,,-99.99,538.340027,,2013-01-29 17:32:00,
2013-01-29 10:42:00,30.0,21.0,29.76,West,260,45.0,57.0,68,-99.99,,,-99.99,419.790009,,2013-01-29 17:42:00,
2013-01-29 10:52:00,30.0,21.0,29.76,West,260,45.0,57.0,68,-99.99,,,-99.99,419.790009,,2013-01-29 17:52:00,
2013-01-29 11:03:00,30.0,17.0,29.76,West,262,48.0,60.0,59,-99.99,,,-99.99,200.130005,,2013-01-29 18:03:00,
2013-01-29 11:12:00,30.0,17.0,29.76,West,262,48.0,60.0,59,-99.99,,,-99.99,200.130005,,2013-01-29 18:12:00,
2013-01-29 11:22:00,30.0,17.0,29.76,West,262,48.0,60.0,59,-99.99,,,-99.99,200.130005,,2013-01-29 18:22:00,
2013-01-29 11:42:00,30.0,12.0,29.74,WSW,257,56.0,72.0,47,-99.99,,,-99.99,230.119995,,2013-01-29 18:42:00,
2013-01-29 11:52:00,30.0,12.0,29.74,WSW,257,56.0,72.0,47,-99.99,,,-99.99,230.119995,,2013-01-29 18:52:00,
2013-01-29 12:02:00,30.0,10.0,29.74,West,260,56.0,67.0,42,-99.99,,,-99.99,426.769989,,2013-01-29 19:02:00,
2013-01-29 12:12:00,30.0,10.0,29.74,West,260,56.0,67.0,42,-99.99,,,-99.99,426.769989,,2013-01-29 19:12:00,
2013-01-29 12:22:00,30.0,10.0,29.74,West,260,56.0,67.0,42,-99.99,,,-99.99,426.769989,,2013-01-29 19:22:00,
2013-01-29 12:32:00,31.0,9.0,29.72,West,259,55.0,69.0,39,-99.99,,,-99.99,460.940002,,2013-01-29 19:32:00,
2013-01-29 12:42:00,32.0,10.0,29.71,West,261,55.0,70.0,39,-99.99,,,-99.99,502.079987,,2013-01-29 19:42:00,
2013-01-29 12:52:00,32.0,10.0,29.71,West,261,55.0,70.0,39,-99.99,,,-99.99,502.079987,,2013-01-29 19:52:00,
2013-01-29 13:02:00,32.0,10.0,29.71,West,261,55.0,70.0,39,-99.99,,,-99.99,502.079987,,2013-01-29 20:02:00,
2013-01-29 13:12:00,32.0,9.0,29.72,West,271,52.0,69.0,37,-99.99,,,-99.99,282.420013,,2013-01-29 20:12:00,
2013-01-29 13:22:00,32.0,9.0,29.72,West,271,52.0,69.0,37,-99.99,,,-99.99,282.420013,,2013-01-29 20:22:00,
2013-01-29 13:33:00,33.0,9.0,29.72,West,273,51.0,62.0,35,-99.99,,,-99.99,494.410004,,2013-01-29 20:33:00,
2013-01-29 13:42:00,33.0,9.0,29.72,West,273,51.0,62.0,35,-99.99,,,-99.99,494.410004,,2013-01-29 20:42:00,
2013-01-29 13:53:00,33.0,9.0,29.72,West,273,51.0,62.0,35,-99.99,,,-99.99,494.410004,,2013-01-29 20:53:00,
2013-01-29 14:03:00,33.0,9.0,29.72,West,270,51.0,65.0,36,-99.99,,,-99.99,267.779999,,2013-01-29 21:03:00,
2013-01-29 14:12:00,33.0,9.0,29.73,West,273,48.0,63.0,35,-99.99,,,-99.99,230.119995,,2013-01-29 21:12:00,
2013-01-29 14:22:00,33.0,9.0,29.73,West,273,48.0,63.0,35,-99.99,,,-99.99,230.119995,,2013-01-29 21:22:00,
2013-01-29 14:33:00,33.0,7.0,29.73,West,273,51.0,66.0,33,-99.99,,,-99.99,232.210007,,2013-01-29 21:33:00,
2013-01-29 14:42:00,33.0,6.0,29.72,West,273,51.0,65.0,31,-99.99,,,-99.99,218.270004,,2013-01-29 21:42:00,
2013-01-29 14:53:00,33.0,6.0,29.72,West,273,51.0,65.0,31,-99.99,,,-99.99,218.270004,,2013-01-29 21:53:00,
2013-01-29 15:02:00,33.0,7.0,29.72,West,272,52.0,67.0,31,-99.99,,,-99.99,270.570007,,2013-01-29 22:02:00,
2013-01-29 15:12:00,33.0,6.0,29.72,West,273,50.0,63.0,31,-99.99,,,-99.99,259.410004,,2013-01-29 22:12:00,
2013-01-29 15:22:00,33.0,6.0,29.72,West,273,50.0,63.0,31,-99.99,,,-99.99,259.410004,,2013-01-29 22:22:00,
2013-01-29 15:33:00,34.0,8.0,29.72,West,269,50.0,67.0,32,-99.99,,,-99.99,311.010010,,2013-01-29 22:33:00,
2013-01-29 15:42:00,34.0,8.0,29.73,West,273,53.0,67.0,33,-99.99,,,-99.99,318.679993,,2013-01-29 22:42:00,
2013-01-29 15:53:00,34.0,8.0,29.73,West,273,53.0,67.0,33,-99.99,,,-99.99,318.679993,,2013-01-29 22:53:00,
2013-01-29 16:02:00,34.0,8.0,29.73,West,273,53.0,67.0,33,-99.99,,,-99.99,318.679993,,2013-01-29 23:02:00,
2013-01-29 16:12:00,34.0,8.0,29.73,West,269,53.0,69.0,33,-99.99,,,-99.99,257.320007,,2013-01-29 23:12:00,
2013-01-29 16:22:00,34.0,8.0,29.73,West,269,53.0,69.0,33,-99.99,,,-99.99,257.320007,,2013-01-29 23:22:00,
2013-01-29 16:33:00,35.0,9.0,29.74,West,269,51.0,66.0,32,-99.99,,,-99.99,407.239990,,2013-01-29 23:33:00,
2013-01-29 16:42:00,34.0,9.0,29.74,West,270,53.0,66.0,34,-99.99,,,-99.99,356.339996,,2013-01-29 23:42:00,
2013-01-29 16:53:00,34.0,9.0,29.74,West,270,53.0,66.0,34,-99.99,,,-99.99,356.339996,,2013-01-29 23:53:00,
2013-01-29 17:02:00,34.0,10.0,29.76,West,270,48.0,61.0,35,-99.99,,,-99.99,262.890015,,2013-01-30 00:02:00,
2013-01-29 17:12:00,34.0,10.0,29.77,West,277,49.0,61.0,36,-99.99,,,-99.99,177.119995,,2013-01-30 00:12:00,
2013-01-29 17:22:00,34.0,10.0,29.77,West,277,49.0,61.0,36,-99.99,,,-99.99,177.119995,,2013-01-30 00:22:00,
2013-01-29 17:32:00,33.0,11.0,29.78,West,275,47.0,60.0,38,-99.99,,,-99.99,147.830002,,2013-01-30 00:32:00,
2013-01-29 17:42:00,32.0,11.0,29.79,West,276,44.0,58.0,40,-99.99,,,-99.99,66.940002,,2013-01-30 00:42:00,
2013-01-29 17:53:00,32.0,11.0,29.79,West,276,44.0,58.0,40,-99.99,,,-99.99,66.940002,,2013-01-30 00:53:00,
2013-01-29 18:02:00,32.0,11.0,29.79,West,276,44.0,58.0,40,-99.99,,,-99.99,66.940002,,2013-01-30 01:02:00,
2013-01-29 18:12:00,31.0,13.0,29.82,West,274,39.0,48.0,48,-99.99,,,-99.99,6.970000,,2013-01-30 01:12:00,
2013-01-29 18:22:00,31.0,13.0,29.82,West,274,39.0,48.0,48,-99.99,,,-99.99,6.970000,,2013-01-30 01:22:00,
2013-01-29 18:32:00,30.0,13.0,29.83,West,273,39.0,49.0,49,-99.99,,,-99.99,0.700000,,2013-01-30 01:32:00,
2013-01-29 18:42:00,30.0,13.0,29.84,West,274,37.0,46.0,49,-99.99,,,-99.99,0.000000,,2013-01-30 01:42:00,
2013-01-29 18:52:00,30.0,13.0,29.84,West,274,37.0,46.0,49,-99.99,,,-99.99,0.000000,,2013-01-30 01:52:00,
2013-01-29 19:02:00,29.0,13.0,29.85,West,276,36.0,45.0,50,-99.99,,,-99.99,0.000000,,2013-01-30 02:02:00,
2013-01-29 19:12:00,29.0,13.0,29.86,West,279,36.0,44.0,50,-99.99,,,-99.99,0.000000,,2013-01-30 02:12:00,
2013-01-29 19:22:00,29.0,13.0,29.86,West,279,36.0,44.0,50,-99.99,,,-99.99,0.000000,,2013-01-30 02:22:00,
2013-01-29 19:33:00,29.0,13.0,29.87,West,280,35.0,45.0,51,-99.99,,,-99.99,0.000000,,2013-01-30 02:33:00,
2013-01-29 19:42:00,29.0,14.0,29.89,WNW,283,34.0,41.0,53,-99.99,,,-99.99,0.000000,,2013-01-30 02:42:00,
2013-01-29 19:53:00,29.0,14.0,29.89,WNW,283,34.0,41.0,53,-99.99,,,-99.99,0.000000,,2013-01-30 02:53:00,
2013-01-29 20:03:00,29.0,14.0,29.89,WNW,283,34.0,41.0,53,-99.99,,,-99.99,0.000000,,2013-01-30 03:03:00,
2013-01-29 20:11:00,27.0,14.0,29.92,WNW,282,29.0,34.0,56,-99.99,,,-99.99,0.000000,,2013-01-30 03:11:00,
2013-01-29 20:22:00,27.0,14.0,29.92,WNW,282,29.0,34.0,56,-99.99,,,-99.99,0.000000,,2013-01-30 03:22:00,
2013-01-29 20:32:00,27.0,14.0,29.92,WNW,283,29.0,35.0,57,-99.99,,,-99.99,0.000000,,2013-01-30 03:32:00,
2013-01-29 20:42:00,27.0,15.0,29.93,WNW,283,28.0,35.0,59,-99.99,,,-99.99,0.000000,,2013-01-30 03:42:00,
2013-01-29 20:52:00,27.0,15.0,29.93,WNW,283,28.0,35.0,59,-99.99,,,-99.99,0.000000,,2013-01-30 03:52:00,
2013-01-29 21:02:00,27.0,14.0,29.93,West,278,31.0,42.0,57,-99.99,,,-99.99,0.000000,,2013-01-30 04:02:00,
2013-01-29 21:12:00,28.0,14.0,29.93,West,277,30.0,37.0,56,-99.99,,,-99.99,0.000000,,2013-01-30 04:12:00,
2013-01-29 21:22:00,28.0,14.0,29.93,West,277,30.0,37.0,56,-99.99,,,-99.99,0.000000,,2013-01-30 04:22:00,
2013-01-29 21:32:00,27.0,14.0,29.93,West,277,28.0,34.0,58,-99.99,,,-99.99,0.000000,,2013-01-30 04:32:00,
2013-01-29 21:41:00,27.0,14.0,29.94,West,276,27.0,32.0,58,-99.99,,,-99.99,0.000000,,2013-01-30 04:41:00,
2013-01-29 21:52:00,27.0,14.0,29.94,West,276,27.0,32.0,58,-99.99,,,-99.99,0.000000,,2013-01-30 04:52:00,
2013-01-29 22:03:00,26.0,13.0,29.95,WNW,283,26.0,31.0,57,-99.99,,,-99.99,0.000000,,2013-01-30 05:03:00,
2013-01-29 22:12:00,26.0,14.0,29.96,WNW,286,23.0,29.0,60,-99.99,,,-99.99,0.000000,,2013-01-30 05:12:00,
2013-01-29 22:22:00,26.0,14.0,29.96,WNW,286,23.0,29.0,60,-99.99,,,-99.99,0.000000,,2013-01-30 05:22:00,
2013-01-29 22:32:00,26.0,14.0,29.97,WNW,286,20.0,25.0,61,-99.99,,,-99.99,0.000000,,2013-01-30 05:32:00,
2013-01-29 22:43:00,26.0,15.0,29.97,WNW,284,19.0,27.0,63,-99.99,,,-99.99,0.000000,,2013-01-30 05:43:00,
2013-01-29 22:52:00,26.0,15.0,29.98,West,275,19.0,25.0,63,-99.99,,,-99.99,0.000000,,2013-01-30 05:52:00,
2013-01-29 23:02:00,26.0,15.0,29.98,West,275,19.0,25.0,63,-99.99,,,-99.99,0.000000,,2013-01-30 06:02:00,
2013-01-29 23:11:00,26.0,15.0,29.98,West,275,19.0,25.0,63,-99.99,,,-99.99,0.000000,,2013-01-30 06:11:00,
2013-01-29 23:21:00,26.0,15.0,29.98,West,275,19.0,25.0,63,-99.99,,,-99.99,0.000000,,2013-01-30 06:21:00,
2013-01-29 23:32:00,27.0,16.0,29.99,West,275,22.0,29.0,62,-99.99,,,-99.99,0.000000,,2013-01-30 06:32:00,
2013-01-29 23:42:00,27.0,17.0,29.99,West,266,18.0,25.0,63,-99.99,,,-99.99,0.000000,,2013-01-30 06:42:00,
2013-01-29 23:52:00,27.0,17.0,29.99,West,266,18.0,25.0,63,-99.99,,,-99.99,0.000000,,2013-01-30 06:52:00,